Time;durP1;ratioP1;P1;durP2;ratioP2;P2;SDS_P1;SDS_P2;PMS_P1;PMS_P2;Temp;Humidity;BMP_temperature;BMP_pressure;BME280_temperature;BME280_humidity;BME280_pressure;Samples;Min_cycle;Max_cycle;Signal;HPM_P1;HPM_P2
2021/12/15 00:00:09;;;;;;;43.45;23.20;;;;;;;7.59;100.00;102525.78;4908673;29;20044;-78
2021/12/15 00:02:38;;;;;;;48.92;24.73;;;;;;;7.46;100.00;102529.97;4912134;29;20160;-78
2021/12/15 00:05:06;;;;;;;48.35;25.67;;;;;;;7.50;100.00;102527.13;4905728;29;20143;-76
2021/12/15 00:07:32;;;;;;;51.67;26.15;;;;;;;7.46;100.00;102523.00;4910896;29;20051;-77
2021/12/15 00:09:58;;;;;;;50.95;25.92;;;;;;;7.50;100.00;102524.53;4908488;29;20040;-77
2021/12/15 00:12:25;;;;;;;52.67;25.27;;;;;;;7.43;100.00;102523.16;4926145;29;20050;-76
2021/12/15 00:14:50;;;;;;;59.67;26.08;;;;;;;7.46;100.00;102517.78;4908772;29;20044;-79
2021/12/15 00:17:16;;;;;;;51.25;26.13;;;;;;;7.53;100.00;102523.50;4906042;29;20490;-77
2021/12/15 00:19:43;;;;;;;56.72;26.77;;;;;;;7.57;100.00;102515.44;4909638;29;20868;-75
2021/12/15 00:22:08;;;;;;;55.45;26.58;;;;;;;7.59;100.00;102512.72;4910234;29;20036;-78
2021/12/15 00:24:35;;;;;;;56.88;26.58;;;;;;;7.53;100.00;102513.88;4921596;29;20181;-75
2021/12/15 00:27:01;;;;;;;56.78;26.02;;;;;;;7.51;100.00;102513.13;4909047;29;20483;-76
2021/12/15 00:29:27;;;;;;;54.47;25.52;;;;;;;7.46;100.00;102516.91;4919499;29;20569;-77
2021/12/15 00:31:53;;;;;;;54.70;26.98;;;;;;;7.50;100.00;102511.47;4907374;29;20790;-75
2021/12/15 00:34:20;;;;;;;54.25;26.52;;;;;;;7.54;100.00;102525.19;4892612;29;20063;-77
2021/12/15 00:36:47;;;;;;;60.33;28.67;;;;;;;7.49;100.00;102521.97;4913460;29;20047;-75
2021/12/15 00:39:16;;;;;;;67.03;29.55;;;;;;;7.48;100.00;102525.50;4895376;29;20044;-76
2021/12/15 00:41:43;;;;;;;61.97;27.75;;;;;;;7.49;100.00;102528.03;4902917;29;20062;-74
2021/12/15 00:44:10;;;;;;;58.58;27.33;;;;;;;7.52;100.00;102540.94;4912835;29;20071;-76
2021/12/15 00:46:37;;;;;;;60.20;26.50;;;;;;;7.50;100.00;102534.97;4882213;29;20047;-76
2021/12/15 00:49:05;;;;;;;57.72;26.60;;;;;;;7.46;100.00;102541.28;4896200;29;20036;-76
2021/12/15 00:51:31;;;;;;;59.47;27.45;;;;;;;7.48;100.00;102534.22;4892585;29;20055;-75
2021/12/15 00:53:58;;;;;;;53.28;25.77;;;;;;;7.46;100.00;102535.19;4893093;29;20503;-75
2021/12/15 00:56:24;;;;;;;54.67;25.27;;;;;;;7.48;100.00;102538.56;4911179;29;20055;-75
2021/12/15 00:58:50;;;;;;;55.35;26.08;;;;;;;7.48;100.00;102539.44;4911994;29;20479;-75
2021/12/15 01:01:16;;;;;;;53.85;25.45;;;;;;;7.41;100.00;102540.69;4897453;29;20126;-74
2021/12/15 01:03:41;;;;;;;52.30;23.70;;;;;;;7.43;100.00;102540.59;4912368;29;20075;-73
2021/12/15 01:06:11;;;;;;;51.80;24.50;;;;;;;7.46;100.00;102543.03;4912289;29;20075;-75
2021/12/15 01:08:42;;;;;;;49.50;24.25;;;;;;;7.46;100.00;102541.28;4893263;29;20051;-75
2021/12/15 01:11:31;;;;;;;50.05;24.08;;;;;;;7.52;100.00;102542.72;4893262;29;20108;-74
2021/12/15 01:19:52;;;;;;;47.72;21.17;;;;;;;7.55;100.00;102543.41;4901211;29;20032;-74
2021/12/15 01:22:34;;;;;;;43.92;21.52;;;;;;;7.50;100.00;102540.19;4909797;29;20048;-75
2021/12/15 01:25:11;;;;;;;43.03;21.45;;;;;;;7.51;100.00;102539.25;4910767;29;20384;-76
2021/12/15 01:27:38;;;;;;;41.40;21.20;;;;;;;7.63;100.00;102540.38;4890019;29;20503;-77
2021/12/15 01:30:06;;;;;;;40.40;21.30;;;;;;;7.67;100.00;102539.28;4906392;29;20040;-76
2021/12/15 01:32:32;;;;;;;39.10;20.10;;;;;;;7.60;100.00;102538.75;4909055;29;20470;-75
2021/12/15 01:34:57;;;;;;;41.53;21.00;;;;;;;7.57;100.00;102538.06;4894095;29;20036;-77
2021/12/15 01:37:24;;;;;;;37.65;20.42;;;;;;;7.52;100.00;102546.16;4897412;29;20045;-75
2021/12/15 01:39:54;;;;;;;38.72;21.42;;;;;;;7.46;100.00;102548.25;4910197;29;20040;-76
2021/12/15 01:42:20;;;;;;;36.50;19.70;;;;;;;7.60;100.00;102546.59;4894549;29;20036;-77
2021/12/15 01:47:30;;;;;;;40.08;20.65;;;;;;;7.60;100.00;102540.53;4911209;29;20495;-75
2021/12/15 01:49:55;;;;;;;43.15;20.90;;;;;;;7.55;100.00;102538.19;4912612;29;20035;-78
2021/12/15 01:52:31;;;;;;;45.28;22.42;;;;;;;7.55;100.00;102535.56;4924055;29;20652;-77
2021/12/15 01:55:06;;;;;;;41.25;21.80;;;;;;;7.67;100.00;102544.50;4920845;29;20538;-75
2021/12/15 01:57:34;;;;;;;42.20;22.23;;;;;;;7.63;100.00;102544.72;4907943;29;20111;-76
2021/12/15 02:00:01;;;;;;;37.53;20.92;;;;;;;7.61;100.00;102537.00;4895702;29;20106;-79
2021/12/15 02:02:27;;;;;;;40.20;20.27;;;;;;;7.65;100.00;102533.28;4883242;29;20477;-77
2021/12/15 02:04:54;;;;;;;41.33;21.77;;;;;;;7.66;100.00;102526.28;4894022;29;20427;-77
2021/12/15 02:07:24;;;;;;;40.67;21.50;;;;;;;7.66;100.00;102527.13;4895526;29;20040;-75
2021/12/15 02:12:21;;;;;;;43.83;22.25;;;;;;;7.63;100.00;102522.09;4907420;29;20047;-77
2021/12/15 02:14:47;;;;;;;42.22;22.27;;;;;;;7.63;100.00;102532.53;4910823;29;20042;-75
2021/12/15 02:17:14;;;;;;;46.25;22.25;;;;;;;7.66;100.00;102536.75;4921645;29;20845;-76
2021/12/15 02:19:40;;;;;;;44.40;23.80;;;;;;;7.71;100.00;102537.34;4923377;29;20037;-75
2021/12/15 02:22:06;;;;;;;39.15;21.58;;;;;;;7.69;100.00;102534.81;4908500;29;20047;-76
2021/12/15 02:24:36;;;;;;;44.25;23.20;;;;;;;7.62;100.00;102538.69;4882371;29;20048;-75
2021/12/15 02:27:03;;;;;;;47.35;24.00;;;;;;;7.69;100.00;102536.59;4909784;29;20040;-77
2021/12/15 02:29:33;;;;;;;47.78;24.48;;;;;;;7.73;100.00;102546.78;4910839;29;20139;-76
2021/12/15 02:32:15;;;;;;;48.20;24.33;;;;;;;7.73;100.00;102543.31;4908621;29;20040;-75
2021/12/15 02:37:04;;;;;;;56.17;25.15;;;;;;;7.63;100.00;102540.38;4927335;29;20686;-74
2021/12/15 02:37:41;;;;;;;57.08;26.40;;;;;;;7.77;100.00;102537.84;4904159;29;20059;-77
2021/12/15 02:40:11;;;;;;;55.92;24.23;;;;;;;7.68;100.00;102534.88;4911396;29;20032;-75
2021/12/15 02:42:45;;;;;;;53.03;26.48;;;;;;;7.86;100.00;102536.50;4905894;29;20062;-77
2021/12/15 02:45:17;;;;;;;55.65;26.63;;;;;;;7.75;100.00;102534.47;4897170;29;20577;-76
2021/12/15 02:47:43;;;;;;;56.92;27.45;;;;;;;7.86;100.00;102531.28;4911361;29;20047;-78
2021/12/15 02:50:17;;;;;;;53.65;26.85;;;;;;;7.88;100.00;102523.34;4918693;29;20032;-78
2021/12/15 02:52:43;;;;;;;56.80;28.05;;;;;;;7.78;100.00;102521.25;4912164;29;20040;-75
2021/12/15 02:55:09;;;;;;;61.67;28.58;;;;;;;7.74;100.00;102532.78;4920434;29;20056;-77
2021/12/15 02:57:35;;;;;;;60.78;28.52;;;;;;;7.75;100.00;102533.63;4909365;29;20044;-77
2021/12/15 03:00:29;;;;;;;64.25;28.40;;;;;;;7.75;100.00;102538.84;4926311;29;20036;-76
2021/12/15 03:05:31;;;;;;;59.00;28.45;;;;;;;7.73;100.00;102538.09;4911403;28;20050;-76
2021/12/15 03:08:07;;;;;;;66.60;29.85;;;;;;;7.67;100.00;102530.59;4888279;29;20119;-76
2021/12/15 03:16:06;;;;;;;62.85;29.00;;;;;;;7.83;100.00;102526.19;4910225;29;20036;-76
2021/12/15 03:18:32;;;;;;;66.28;29.88;;;;;;;7.83;100.00;102531.44;4913889;29;20047;-78
2021/12/15 03:21:03;;;;;;;67.53;29.48;;;;;;;7.94;100.00;102533.44;4913279;29;20028;-76
2021/12/15 03:23:37;;;;;;;69.03;30.38;;;;;;;7.95;100.00;102541.22;4909454;29;20044;-77
2021/12/15 03:26:03;;;;;;;73.65;30.65;;;;;;;7.90;100.00;102530.16;4912610;29;20037;-78
2021/12/15 03:34:25;;;;;;;73.35;29.15;;;;;;;8.18;100.00;102529.47;4927055;29;20056;-77
2021/12/15 03:39:22;;;;;;;75.80;31.13;;;;;;;8.28;100.00;102531.56;4916543;29;20439;-76
2021/12/15 03:41:56;;;;;;;81.28;30.17;;;;;;;8.27;100.00;102533.31;4896887;29;20123;-76
2021/12/15 03:44:22;;;;;;;76.40;30.10;;;;;;;8.24;100.00;102530.03;4915029;29;20073;-77
2021/12/15 03:46:48;;;;;;;83.25;31.13;;;;;;;8.23;100.00;102516.16;4911372;29;20491;-77
2021/12/15 03:49:14;;;;;;;82.47;32.33;;;;;;;8.28;100.00;102528.94;4930221;29;20043;-78
2021/12/15 03:51:39;;;;;;;80.25;29.85;;;;;;;8.30;100.00;102521.84;4917528;29;20030;-76
2021/12/15 03:54:06;;;;;;;76.13;29.60;;;;;;;8.27;100.00;102527.25;4927512;29;20067;-76
2021/12/15 03:56:35;;;;;;;77.07;30.35;;;;;;;8.22;100.00;102527.50;4921396;29;20044;-77
2021/12/15 03:59:03;;;;;;;75.85;29.88;;;;;;;8.23;100.00;102536.19;4914666;29;20043;-78
2021/12/15 04:01:29;;;;;;;72.47;28.63;;;;;;;8.25;100.00;102524.75;4929827;29;20044;-77
2021/12/15 04:03:55;;;;;;;70.80;27.70;;;;;;;8.23;100.00;102525.72;4899345;29;20032;-77
2021/12/15 04:06:26;;;;;;;75.85;30.25;;;;;;;8.22;100.00;102530.13;4900649;29;20042;-77
2021/12/15 04:08:53;;;;;;;75.07;28.95;;;;;;;8.28;100.00;102527.16;4916289;29;20044;-77
2021/12/15 04:11:21;;;;;;;67.60;28.40;;;;;;;8.15;100.00;102527.00;4914862;29;20055;-77
2021/12/15 04:13:48;;;;;;;70.30;28.40;;;;;;;8.13;100.00;102523.63;4895932;29;20044;-76
2021/12/15 04:16:41;;;;;;;67.78;28.05;;;;;;;8.26;100.00;102529.03;4916810;29;20028;-77
2021/12/15 04:19:10;;;;;;;69.65;27.55;;;;;;;8.24;100.00;102538.72;4914002;29;20044;-79
2021/12/15 04:21:38;;;;;;;76.72;27.75;;;;;;;8.21;100.00;102532.81;4883031;29;20036;-78
2021/12/15 04:24:05;;;;;;;72.13;28.33;;;;;;;8.16;100.00;102540.94;4901221;29;20035;-76
2021/12/15 04:26:31;;;;;;;64.35;26.58;;;;;;;8.21;100.00;102541.50;4915208;29;20041;-76
2021/12/15 04:28:57;;;;;;;74.50;28.13;;;;;;;8.12;100.00;102539.44;4914673;29;20312;-77
2021/12/15 04:31:26;;;;;;;70.10;27.75;;;;;;;8.14;100.00;102534.97;4928424;29;20071;-77
2021/12/15 04:34:06;;;;;;;77.07;28.55;;;;;;;8.13;100.00;102543.72;4918938;29;20076;-76
2021/12/15 04:36:37;;;;;;;71.03;27.80;;;;;;;8.19;100.00;102541.63;4881171;29;20041;-76
2021/12/15 04:39:07;;;;;;;68.85;27.30;;;;;;;8.22;100.00;102548.44;4900862;29;20047;-78
2021/12/15 04:41:33;;;;;;;73.25;28.38;;;;;;;8.17;100.00;102545.22;4898252;29;20044;-76
2021/12/15 04:44:00;;;;;;;66.75;25.73;;;;;;;8.14;100.00;102541.03;4900669;29;20051;-77
2021/12/15 04:46:30;;;;;;;72.70;27.45;;;;;;;8.07;100.00;102547.50;4911894;29;20044;-77
2021/12/15 04:48:56;;;;;;;74.85;27.23;;;;;;;8.19;100.00;102540.75;4892107;29;20064;-76
2021/12/15 04:51:23;;;;;;;75.28;27.45;;;;;;;8.23;100.00;102539.66;4913001;29;20055;-77
2021/12/15 04:53:49;;;;;;;71.22;25.85;;;;;;;8.19;100.00;102536.38;4905583;29;20032;-76
2021/12/15 04:56:15;;;;;;;82.47;28.38;;;;;;;8.18;100.00;102537.31;4900195;29;20035;-78
2021/12/15 04:58:42;;;;;;;80.78;27.90;;;;;;;8.16;100.00;102543.56;4916553;29;20043;-76
2021/12/15 05:01:10;;;;;;;78.78;27.38;;;;;;;8.31;100.00;102542.69;4921733;29;20504;-77
2021/12/15 05:03:38;;;;;;;73.75;26.80;;;;;;;8.28;100.00;102542.84;4910669;29;20435;-78
2021/12/15 05:06:05;;;;;;;80.70;28.38;;;;;;;8.29;100.00;102541.94;4885572;29;20131;-79
2021/12/15 05:08:31;;;;;;;88.70;28.10;;;;;;;8.28;100.00;102542.84;4915249;29;20036;-76
2021/12/15 05:10:59;;;;;;;95.05;27.23;;;;;;;8.20;100.00;102537.22;4932427;29;20039;-77
2021/12/15 05:13:25;;;;;;;93.32;30.17;;;;;;;8.28;100.00;102534.16;4902121;29;20041;-79
2021/12/15 05:15:51;;;;;;;85.85;28.25;;;;;;;8.27;100.00;102533.31;4931074;29;20044;-76
2021/12/15 05:18:17;;;;;;;87.53;28.92;;;;;;;8.27;100.00;102543.78;4921672;29;20204;-76
2021/12/15 05:20:47;;;;;;;91.63;30.15;;;;;;;8.21;100.00;102524.97;4920206;29;20091;-76
2021/12/15 05:23:15;;;;;;;97.00;28.80;;;;;;;8.30;100.00;102534.91;4933122;29;20067;-76
2021/12/15 05:25:42;;;;;;;96.07;31.08;;;;;;;8.26;100.00;102530.78;4911994;29;20042;-76
2021/12/15 05:28:08;;;;;;;100.65;31.77;;;;;;;8.29;100.00;102530.63;4898718;29;20124;-78
2021/12/15 05:30:34;;;;;;;101.40;31.00;;;;;;;8.24;100.00;102537.88;4887980;29;20067;-77
2021/12/15 05:33:00;;;;;;;108.93;32.42;;;;;;;8.23;100.00;102542.28;4913218;29;20036;-77
2021/12/15 05:35:26;;;;;;;102.45;31.30;;;;;;;8.26;100.00;102549.94;4914006;29;20179;-77
2021/12/15 05:37:55;;;;;;;107.80;32.30;;;;;;;8.35;100.00;102554.63;4913585;29;20138;-76
2021/12/15 05:40:22;;;;;;;109.68;31.63;;;;;;;8.35;100.00;102553.81;4898746;29;20487;-78
2021/12/15 05:42:48;;;;;;;109.75;33.28;;;;;;;8.36;100.00;102556.34;4924794;29;20046;-76
2021/12/15 05:45:14;;;;;;;101.80;33.40;;;;;;;8.34;100.00;102554.72;4914093;29;20051;-76
2021/12/15 05:47:43;;;;;;;110.50;32.50;;;;;;;8.31;100.00;102554.91;4912508;29;20107;-77
2021/12/15 05:50:13;;;;;;;111.43;32.85;;;;;;;8.30;100.00;102555.84;4913365;29;20039;-77
2021/12/15 05:52:39;;;;;;;103.13;33.38;;;;;;;8.35;100.00;102553.81;4908428;29;20107;-77
2021/12/15 05:55:09;;;;;;;111.55;33.70;;;;;;;8.40;100.00;102562.25;4913123;29;20267;-75
2021/12/15 05:57:35;;;;;;;110.95;36.17;;;;;;;8.35;100.00;102551.19;4919008;29;20108;-77
2021/12/15 06:00:03;;;;;;;112.43;37.25;;;;;;;8.31;100.00;102558.38;4929639;29;20039;-76
2021/12/15 06:02:37;;;;;;;120.68;37.03;;;;;;;8.52;100.00;102558.94;4929473;29;20130;-76
2021/12/15 06:05:03;;;;;;;124.80;37.70;;;;;;;8.50;100.00;102557.34;4918660;28;20032;-76
2021/12/15 06:07:29;;;;;;;122.68;37.13;;;;;;;8.52;100.00;102550.25;4883039;29;20036;-76
2021/12/15 06:09:55;;;;;;;118.60;37.80;;;;;;;8.50;100.00;102549.50;4915175;29;20115;-77
2021/12/15 06:12:20;;;;;;;121.88;39.00;;;;;;;8.44;100.00;102545.47;4912794;29;20039;-77
2021/12/15 06:14:46;;;;;;;125.82;38.05;;;;;;;8.44;100.00;102544.59;4909185;29;20035;-76
2021/12/15 06:17:12;;;;;;;128.82;38.95;;;;;;;8.43;100.00;102559.47;4914605;29;20420;-76
2021/12/15 06:19:39;;;;;;;118.70;38.60;;;;;;;8.44;100.00;102555.94;4880504;29;20096;-78
2021/12/15 06:22:06;;;;;;;129.65;39.90;;;;;;;8.54;100.00;102561.47;4912757;29;20036;-76
2021/12/15 06:24:32;;;;;;;124.05;39.20;;;;;;;8.45;100.00;102562.81;4927475;29;20036;-76
2021/12/15 06:27:05;;;;;;;124.05;40.63;;;;;;;8.61;100.00;102567.16;4913315;29;20028;-76
2021/12/15 06:29:31;;;;;;;123.07;38.40;;;;;;;8.58;100.00;102566.41;4927717;29;20144;-76
2021/12/15 06:31:56;;;;;;;124.93;42.13;;;;;;;8.69;100.00;102572.81;4896252;29;20131;-77
2021/12/15 06:34:23;;;;;;;127.13;40.08;;;;;;;8.58;100.00;102566.41;4903859;29;20135;-76
2021/12/15 06:36:48;;;;;;;134.57;43.17;;;;;;;8.63;100.00;102565.34;4911736;29;20032;-77
2021/12/15 06:39:15;;;;;;;125.43;42.60;;;;;;;8.76;100.00;102574.97;4924598;29;20505;-76
2021/12/15 06:41:41;;;;;;;130.57;43.28;;;;;;;8.73;100.00;102571.69;4911515;29;20050;-76
2021/12/15 06:44:08;;;;;;;131.88;43.15;;;;;;;8.75;100.00;102581.13;4925573;29;20035;-75
2021/12/15 06:59:58;;;;;;;120.15;43.10;;;;;;;8.77;100.00;102587.13;4924722;29;20132;-75
2021/12/15 07:02:24;;;;;;;119.85;43.10;;;;;;;8.80;100.00;102587.88;4909190;29;20040;-76
2021/12/15 07:04:50;;;;;;;115.32;42.25;;;;;;;8.77;100.00;102584.50;4896537;29;20083;-76
2021/12/15 07:07:16;;;;;;;112.53;42.70;;;;;;;8.74;100.00;102584.69;4926857;29;20034;-76
2021/12/15 07:09:42;;;;;;;119.95;44.60;;;;;;;8.78;100.00;102595.84;4908442;29;20134;-76
2021/12/15 07:12:08;;;;;;;121.28;44.05;;;;;;;8.89;100.00;102597.78;4910058;29;20124;-77
2021/12/15 07:14:34;;;;;;;115.43;44.08;;;;;;;8.87;100.00;102592.69;4906012;29;20048;-76
2021/12/15 07:17:02;;;;;;;118.07;44.10;;;;;;;8.86;100.00;102603.22;4912891;29;20495;-77
2021/12/15 07:22:14;;;;;;;118.85;44.13;;;;;;;8.89;100.00;102596.03;4911912;29;20036;-77
2021/12/15 07:24:40;;;;;;;116.38;44.85;;;;;;;8.91;100.00;102607.25;4895488;29;20032;-77
2021/12/15 07:27:07;;;;;;;114.05;45.33;;;;;;;8.85;100.00;102606.75;4910740;29;20032;-77
2021/12/15 07:29:34;;;;;;;115.13;45.45;;;;;;;8.90;100.00;102612.59;4879875;29;20044;-75
2021/12/15 07:32:02;;;;;;;110.82;44.95;;;;;;;8.92;100.00;102611.53;4923584;29;20423;-75
2021/12/15 07:34:27;;;;;;;111.30;43.17;;;;;;;8.89;100.00;102613.50;4910698;29;20036;-76
2021/12/15 07:36:53;;;;;;;105.82;44.35;;;;;;;8.90;100.00;102616.03;4922364;29;20025;-76
2021/12/15 07:39:20;;;;;;;108.38;44.35;;;;;;;8.88;100.00;102615.28;4906398;29;20107;-75
2021/12/15 07:41:51;;;;;;;97.43;43.05;;;;;;;8.99;100.00;102619.91;4909326;29;20036;-75
2021/12/15 07:44:19;;;;;;;90.57;40.10;;;;;;;9.00;100.00;102623.34;4893596;29;20402;-75
2021/12/15 07:46:47;;;;;;;92.72;42.30;;;;;;;8.99;100.00;102619.91;4908091;29;20035;-77
2021/12/15 07:49:13;;;;;;;100.97;42.83;;;;;;;8.95;100.00;102628.88;4922198;29;20044;-76
2021/12/15 07:51:42;;;;;;;93.35;41.83;;;;;;;8.93;100.00;102628.13;4888310;29;20040;-76
2021/12/15 07:54:08;;;;;;;91.38;42.10;;;;;;;8.90;100.00;102617.81;4909359;29;20396;-75
2021/12/15 07:56:34;;;;;;;85.43;39.40;;;;;;;9.05;100.00;102632.63;4909963;29;20047;-75
2021/12/15 07:59:00;;;;;;;78.80;38.25;;;;;;;9.04;100.00;102638.81;4924170;29;20036;-76
2021/12/15 08:01:25;;;;;;;82.63;39.55;;;;;;;8.97;100.00;102637.47;4910377;29;20047;-75
2021/12/15 08:03:54;;;;;;;80.43;37.92;;;;;;;9.10;100.00;102635.81;4922139;29;20041;-75
2021/12/15 08:06:25;;;;;;;77.13;37.95;;;;;;;9.14;100.00;102639.09;4925460;29;20519;-76
2021/12/15 08:08:52;;;;;;;75.15;38.60;;;;;;;9.11;100.00;102634.03;4907526;29;20483;-76
2021/12/15 08:11:18;;;;;;;79.72;38.60;;;;;;;9.12;100.00;102640.97;4923441;29;20043;-76
2021/12/15 08:13:43;;;;;;;73.88;37.20;;;;;;;9.10;100.00;102634.97;4899780;29;20035;-75
2021/12/15 08:16:09;;;;;;;76.50;36.75;;;;;;;9.12;100.00;102636.56;4898780;29;20032;-76
2021/12/15 08:18:35;;;;;;;72.88;37.20;;;;;;;9.13;100.00;102640.84;4911617;29;20036;-75
2021/12/15 08:21:04;;;;;;;71.93;35.92;;;;;;;9.16;100.00;102635.44;4913970;29;20035;-75
2021/12/15 08:23:31;;;;;;;71.72;36.45;;;;;;;9.14;100.00;102645.16;4912220;29;20114;-75
2021/12/15 08:25:57;;;;;;;73.97;36.20;;;;;;;9.16;100.00;102642.47;4930858;29;20099;-75
2021/12/15 08:28:23;;;;;;;67.78;35.90;;;;;;;9.21;100.00;102643.03;4910713;29;20047;-75
2021/12/15 08:30:50;;;;;;;66.22;34.15;;;;;;;9.21;100.00;102648.28;4912527;29;20075;-75
2021/12/15 08:33:20;;;;;;;68.40;34.97;;;;;;;9.09;100.00;102643.75;4901239;29;20068;-76
2021/12/15 08:35:53;;;;;;;66.30;33.90;;;;;;;9.16;100.00;102642.47;4914449;29;20068;-75
2021/12/15 08:38:20;;;;;;;65.03;34.15;;;;;;;9.18;100.00;102645.84;4894889;29;20040;-76
2021/12/15 08:40:47;;;;;;;62.70;33.75;;;;;;;9.21;100.00;102652.66;4911892;29;20096;-75
2021/12/15 08:43:14;;;;;;;67.35;34.53;;;;;;;9.24;100.00;102648.06;4906137;29;20032;-76
2021/12/15 08:45:46;;;;;;;59.67;33.05;;;;;;;9.22;100.00;102643.88;4925590;29;20024;-75
2021/12/15 08:48:12;;;;;;;69.40;34.80;;;;;;;9.24;100.00;102655.94;4893752;29;20072;-74
2021/12/15 08:50:40;;;;;;;68.50;34.83;;;;;;;9.23;100.00;102651.66;4907167;29;20191;-75
2021/12/15 08:53:10;;;;;;;62.00;34.15;;;;;;;9.24;100.00;102660.34;4938158;29;20490;-76
2021/12/15 08:55:38;;;;;;;65.50;35.15;;;;;;;9.30;100.00;102667.81;4912327;29;20043;-76
2021/12/15 08:58:05;;;;;;;62.10;33.30;;;;;;;9.25;100.00;102660.25;4895129;29;20075;-76
2021/12/15 09:00:31;;;;;;;66.63;35.10;;;;;;;9.22;100.00;102657.81;4908834;29;20031;-75
2021/12/15 09:02:57;;;;;;;64.35;34.50;;;;;;;9.21;100.00;102656.13;4912474;29;20063;-76
2021/12/15 09:05:24;;;;;;;67.28;35.22;;;;;;;9.27;100.00;102660.16;4926088;29;20526;-74
2021/12/15 09:07:52;;;;;;;72.97;35.72;;;;;;;9.29;100.00;102660.91;4898053;29;20039;-75
2021/12/15 09:10:19;;;;;;;71.88;37.42;;;;;;;9.25;100.00;102649.78;4911605;29;20048;-75
2021/12/15 09:12:45;;;;;;;70.05;36.13;;;;;;;9.32;100.00;102663.34;4899707;29;20048;-78
2021/12/15 09:15:11;;;;;;;69.10;36.78;;;;;;;9.29;100.00;102661.75;4910119;29;20039;-75
2021/12/15 09:17:38;;;;;;;72.75;37.47;;;;;;;9.32;100.00;102660.72;4905570;29;20483;-74
2021/12/15 09:20:10;;;;;;;66.93;35.50;;;;;;;9.35;100.00;102660.53;4925118;29;20055;-75
2021/12/15 09:22:38;;;;;;;72.07;38.00;;;;;;;9.31;100.00;102657.25;4880548;29;20540;-76
2021/12/15 09:25:10;;;;;;;69.13;36.03;;;;;;;9.26;100.00;102669.78;4897793;29;20048;-75
2021/12/15 09:27:38;;;;;;;69.05;36.47;;;;;;;9.37;100.00;102663.91;4874995;29;20036;-75
2021/12/15 09:30:06;;;;;;;71.88;37.15;;;;;;;9.41;100.00;102652.31;4910447;29;20096;-75
2021/12/15 09:32:32;;;;;;;69.32;37.20;;;;;;;9.32;100.00;102658.09;4896446;29;20070;-74
2021/12/15 09:34:57;;;;;;;70.03;36.17;;;;;;;9.33;100.00;102659.78;4912126;29;20036;-76
2021/12/15 09:37:23;;;;;;;69.18;36.03;;;;;;;9.38;100.00;102659.50;4895776;29;20167;-75
2021/12/15 09:39:49;;;;;;;73.07;36.75;;;;;;;9.33;100.00;102659.78;4925289;29;20104;-75
2021/12/15 09:42:20;;;;;;;71.30;36.58;;;;;;;9.33;100.00;102659.78;4910117;29;20051;-75
2021/12/15 09:44:49;;;;;;;70.35;36.00;;;;;;;9.37;100.00;102660.44;4911936;29;20415;-77
2021/12/15 10:04:18;;;;;;;74.25;37.08;;;;;;;9.38;100.00;102668.22;4921746;29;20032;-75
2021/12/15 10:17:34;;;;;;;79.78;38.53;;;;;;;9.34;100.00;102672.81;4928079;29;20048;-74
2021/12/15 10:20:03;;;;;;;69.43;37.88;;;;;;;9.32;100.00;102672.06;4926625;29;20036;-76
2021/12/15 10:22:42;;;;;;;75.78;39.17;;;;;;;9.34;100.00;102683.28;4921817;29;20036;-75
2021/12/15 10:25:24;;;;;;;73.15;38.63;;;;;;;9.36;100.00;102677.91;4894853;29;20040;-76
2021/12/15 10:27:53;;;;;;;75.57;39.90;;;;;;;9.29;100.00;102671.38;4901198;29;20043;-74
2021/12/15 10:30:24;;;;;;;83.47;41.30;;;;;;;9.31;100.00;102678.22;4893158;29;20092;-75
2021/12/15 10:32:58;;;;;;;78.72;39.25;;;;;;;9.33;100.00;102675.50;4893370;29;20040;-74
2021/12/15 10:35:38;;;;;;;80.10;40.70;;;;;;;9.35;100.00;102678.88;4921242;29;20035;-75
2021/12/15 10:38:18;;;;;;;78.03;39.80;;;;;;;9.31;100.00;102675.59;4924561;29;20101;-75
2021/12/15 10:41:08;;;;;;;78.82;40.88;;;;;;;9.32;100.00;102679.03;4905330;29;20045;-74
2021/12/15 10:43:48;;;;;;;77.43;39.47;;;;;;;9.24;100.00;102670.81;4925685;29;20072;-77
2021/12/15 10:46:23;;;;;;;75.80;39.10;;;;;;;9.33;100.00;102675.50;4894054;29;20072;-77
2021/12/15 10:48:54;;;;;;;79.43;39.15;;;;;;;9.33;100.00;102675.50;4927674;29;20028;-74
2021/12/15 10:51:23;;;;;;;79.77;39.57;;;;;;;9.31;100.00;102672.13;4923359;29;20078;-75
2021/12/15 10:53:52;;;;;;;78.57;39.80;;;;;;;9.33;100.00;102673.72;4924390;29;20059;-75
2021/12/15 10:56:22;;;;;;;76.28;39.92;;;;;;;9.38;100.00;102669.97;4895804;29;20079;-76
2021/12/15 10:58:52;;;;;;;83.57;40.05;;;;;;;9.38;100.00;102664.75;4891676;29;20510;-75
2021/12/15 11:01:56;;;;;;;79.35;41.60;;;;;;;9.40;100.00;102668.97;4912799;29;20107;-78
2021/12/15 11:04:43;;;;;;;79.15;40.35;;;;;;;9.43;100.00;102674.00;4883843;29;20243;-76
2021/12/15 11:07:19;;;;;;;86.18;41.78;;;;;;;9.45;100.00;102666.06;4884852;29;20032;-76
2021/12/15 11:09:49;;;;;;;83.10;40.17;;;;;;;9.39;100.00;102667.28;4924764;29;20031;-75
2021/12/15 11:12:37;;;;;;;81.25;41.17;;;;;;;9.37;100.00;102663.06;4911131;29;20040;-75
2021/12/15 11:15:05;;;;;;;81.40;40.65;;;;;;;9.41;100.00;102665.41;4909411;29;20036;-75
2021/12/15 11:17:34;;;;;;;77.68;39.58;;;;;;;9.37;100.00;102670.94;4927235;29;20036;-75
2021/12/15 11:20:06;;;;;;;76.78;39.92;;;;;;;9.49;100.00;102672.78;4927572;29;20176;-75
2021/12/15 11:22:47;;;;;;;77.85;39.90;;;;;;;9.43;100.00;102668.78;4913969;29;20056;-76
2021/12/15 11:25:21;;;;;;;80.93;40.00;;;;;;;9.48;100.00;102671.97;4930226;29;20051;-74
2021/12/15 11:28:00;;;;;;;80.57;39.13;;;;;;;9.44;100.00;102670.47;4932446;29;20036;-74
2021/12/15 11:30:32;;;;;;;82.30;39.70;;;;;;;9.42;100.00;102666.25;4925044;29;20031;-75
2021/12/15 11:33:01;;;;;;;79.40;39.38;;;;;;;9.39;100.00;102672.50;4895336;29;20043;-76
2021/12/15 11:35:31;;;;;;;80.72;40.75;;;;;;;9.43;100.00;102671.38;4912875;29;20040;-76
2021/12/15 11:38:13;;;;;;;78.97;40.25;;;;;;;9.50;100.00;102662.22;4925949;29;20041;-74
2021/12/15 11:41:03;;;;;;;77.70;39.85;;;;;;;9.59;100.00;102663.47;4909331;29;20059;-75
2021/12/15 11:43:29;;;;;;;72.28;36.72;;;;;;;9.61;100.00;102671.25;4927722;29;20103;-75
2021/12/15 11:45:55;;;;;;;83.65;39.35;;;;;;;9.62;100.00;102665.06;4910871;29;20563;-75
2021/12/15 11:48:24;;;;;;;73.82;39.10;;;;;;;9.65;100.00;102660.47;4922141;29;20028;-75
2021/12/15 11:50:53;;;;;;;70.55;37.55;;;;;;;9.65;100.00;102657.00;4914112;29;20579;-74
2021/12/15 11:53:30;;;;;;;73.25;38.30;;;;;;;9.66;100.00;102663.91;4927154;29;20036;-74
2021/12/15 11:56:25;;;;;;;68.53;35.95;;;;;;;9.62;100.00;102662.44;4913191;29;20063;-76
2021/12/15 11:59:03;;;;;;;75.20;37.08;;;;;;;9.60;100.00;102662.50;4914914;29;20085;-77
2021/12/15 12:01:41;;;;;;;75.07;38.15;;;;;;;9.65;100.00;102664.88;4927694;29;20072;-75
2021/12/15 12:04:17;;;;;;;73.90;38.17;;;;;;;9.62;100.00;102660.66;4924309;29;20165;-75
2021/12/15 12:06:46;;;;;;;73.75;38.88;;;;;;;9.66;100.00;102658.69;4893153;29;20059;-75
2021/12/15 12:09:11;;;;;;;71.90;38.55;;;;;;;9.55;100.00;102660.19;4899677;29;20328;-75
2021/12/15 12:11:41;;;;;;;73.10;36.97;;;;;;;9.63;100.00;102661.50;4901137;29;20079;-75
2021/12/15 12:14:17;;;;;;;72.95;37.47;;;;;;;9.60;100.00;102656.44;4906778;29;20047;-75
2021/12/15 12:16:44;;;;;;;72.10;37.22;;;;;;;9.61;100.00;102658.13;4909423;29;20041;-76
2021/12/15 12:19:13;;;;;;;72.57;38.67;;;;;;;9.60;100.00;102656.44;4924482;29;20029;-76
2021/12/15 12:21:39;;;;;;;72.68;36.65;;;;;;;9.66;100.00;102659.53;4924124;29;20032;-76
2021/12/15 12:24:06;;;;;;;69.97;36.47;;;;;;;9.63;100.00;102651.03;4911421;29;20119;-76
2021/12/15 12:26:34;;;;;;;69.47;36.53;;;;;;;9.70;100.00;102653.19;4916569;29;20043;-75